sensor_id;sensor_type;location;lat;lon;timestamp;temperature;humidity
14248;DHT22;7208;49.826;6.004;2023-10-08T00:02:45;11.70;99.90
14248;DHT22;7208;49.826;6.004;2023-10-08T00:05:10;12.10;99.90
14248;DHT22;7208;49.826;6.004;2023-10-08T00:07:39;12.30;99.90
14248;DHT22;7208;49.826;6.004;2023-10-08T00:10:08;12.30;99.90
14248;DHT22;7208;49.826;6.004;2023-10-08T00:12:34;12.40;99.90
14248;DHT22;7208;49.826;6.004;2023-10-08T00:15:00;12.40;99.90
14248;DHT22;7208;49.826;6.004;2023-10-08T00:17:26;12.20;99.90
14248;DHT22;7208;49.826;6.004;2023-10-08T00:19:52;11.70;99.90
14248;DHT22;7208;49.826;6.004;2023-10-08T00:22:18;11.50;99.90
14248;DHT22;7208;49.826;6.004;2023-10-08T00:24:45;11.40;99.90
14248;DHT22;7208;49.826;6.004;2023-10-08T00:27:15;11.30;99.90
14248;DHT22;7208;49.826;6.004;2023-10-08T00:29:41;11.30;99.90
14248;DHT22;7208;49.826;6.004;2023-10-08T00:32:09;11.30;99.90
14248;DHT22;7208;49.826;6.004;2023-10-08T00:34:39;11.20;99.90
14248;DHT22;7208;49.826;6.004;2023-10-08T00:37:09;11.20;99.90
14248;DHT22;7208;49.826;6.004;2023-10-08T00:39:36;11.10;99.90
14248;DHT22;7208;49.826;6.004;2023-10-08T00:42:03;11.00;99.90
14248;DHT22;7208;49.826;6.004;2023-10-08T00:44:34;11.00;99.90
14248;DHT22;7208;49.826;6.004;2023-10-08T00:47:05;11.00;99.90
14248;DHT22;7208;49.826;6.004;2023-10-08T00:49:32;11.10;99.90
14248;DHT22;7208;49.826;6.004;2023-10-08T00:51:59;11.20;99.90
14248;DHT22;7208;49.826;6.004;2023-10-08T00:54:35;11.10;99.90
14248;DHT22;7208;49.826;6.004;2023-10-08T00:57:19;10.90;99.90
14248;DHT22;7208;49.826;6.004;2023-10-08T00:59:47;10.80;99.90
14248;DHT22;7208;49.826;6.004;2023-10-08T01:02:23;10.70;99.90
14248;DHT22;7208;49.826;6.004;2023-10-08T01:04:57;10.80;99.90
14248;DHT22;7208;49.826;6.004;2023-10-08T01:07:24;10.80;99.90
14248;DHT22;7208;49.826;6.004;2023-10-08T01:09:50;10.80;99.90
14248;DHT22;7208;49.826;6.004;2023-10-08T01:12:21;10.90;99.90
14248;DHT22;7208;49.826;6.004;2023-10-08T01:14:47;10.90;99.90
14248;DHT22;7208;49.826;6.004;2023-10-08T01:17:15;11.00;99.90
14248;DHT22;7208;49.826;6.004;2023-10-08T01:19:45;11.00;99.90
14248;DHT22;7208;49.826;6.004;2023-10-08T01:22:25;10.90;99.90
14248;DHT22;7208;49.826;6.004;2023-10-08T01:24:54;10.90;99.90
14248;DHT22;7208;49.826;6.004;2023-10-08T01:27:20;11.00;99.90
14248;DHT22;7208;49.826;6.004;2023-10-08T01:29:51;11.10;99.90
14248;DHT22;7208;49.826;6.004;2023-10-08T01:32:21;11.00;99.90
14248;DHT22;7208;49.826;6.004;2023-10-08T01:34:49;11.00;99.90
14248;DHT22;7208;49.826;6.004;2023-10-08T01:37:16;11.00;99.90
14248;DHT22;7208;49.826;6.004;2023-10-08T01:39:45;11.10;99.90
14248;DHT22;7208;49.826;6.004;2023-10-08T01:42:12;11.10;99.90
14248;DHT22;7208;49.826;6.004;2023-10-08T01:44:47;11.10;99.90
14248;DHT22;7208;49.826;6.004;2023-10-08T01:47:14;10.90;99.90
14248;DHT22;7208;49.826;6.004;2023-10-08T01:49:44;10.80;99.90
14248;DHT22;7208;49.826;6.004;2023-10-08T01:52:12;10.80;99.90
14248;DHT22;7208;49.826;6.004;2023-10-08T01:54:50;10.80;99.90
14248;DHT22;7208;49.826;6.004;2023-10-08T01:57:19;10.80;99.90
14248;DHT22;7208;49.826;6.004;2023-10-08T01:59:45;10.80;99.90
14248;DHT22;7208;49.826;6.004;2023-10-08T02:02:11;10.80;99.90
14248;DHT22;7208;49.826;6.004;2023-10-08T02:04:38;10.80;99.90
14248;DHT22;7208;49.826;6.004;2023-10-08T02:07:06;10.70;99.90
14248;DHT22;7208;49.826;6.004;2023-10-08T02:09:38;10.70;99.90
14248;DHT22;7208;49.826;6.004;2023-10-08T02:12:04;10.70;99.90
14248;DHT22;7208;49.826;6.004;2023-10-08T02:14:30;10.80;99.90
14248;DHT22;7208;49.826;6.004;2023-10-08T02:16:58;10.70;99.90
14248;DHT22;7208;49.826;6.004;2023-10-08T02:19:28;10.80;99.90
14248;DHT22;7208;49.826;6.004;2023-10-08T02:21:58;10.80;99.90
14248;DHT22;7208;49.826;6.004;2023-10-08T02:24:25;10.80;99.90
14248;DHT22;7208;49.826;6.004;2023-10-08T02:26:54;10.80;99.90
14248;DHT22;7208;49.826;6.004;2023-10-08T02:29:25;10.80;99.90
14248;DHT22;7208;49.826;6.004;2023-10-08T02:31:51;10.90;99.90
14248;DHT22;7208;49.826;6.004;2023-10-08T02:34:18;10.80;99.90
14248;DHT22;7208;49.826;6.004;2023-10-08T02:36:45;10.80;99.90
14248;DHT22;7208;49.826;6.004;2023-10-08T02:39:13;10.80;99.90
14248;DHT22;7208;49.826;6.004;2023-10-08T02:41:42;10.90;99.90
14248;DHT22;7208;49.826;6.004;2023-10-08T02:44:11;10.90;99.90
14248;DHT22;7208;49.826;6.004;2023-10-08T02:46:41;10.90;99.90
14248;DHT22;7208;49.826;6.004;2023-10-08T02:49:11;10.90;99.90
14248;DHT22;7208;49.826;6.004;2023-10-08T02:51:40;11.00;99.90
14248;DHT22;7208;49.826;6.004;2023-10-08T02:54:10;11.00;99.90
14248;DHT22;7208;49.826;6.004;2023-10-08T02:56:51;11.10;99.90
14248;DHT22;7208;49.826;6.004;2023-10-08T02:59:18;11.20;99.90
14248;DHT22;7208;49.826;6.004;2023-10-08T03:01:45;11.20;99.90
14248;DHT22;7208;49.826;6.004;2023-10-08T03:04:12;11.20;99.90
14248;DHT22;7208;49.826;6.004;2023-10-08T03:06:48;11.20;99.90
14248;DHT22;7208;49.826;6.004;2023-10-08T03:09:21;11.30;99.90
14248;DHT22;7208;49.826;6.004;2023-10-08T03:11:49;11.40;99.90
14248;DHT22;7208;49.826;6.004;2023-10-08T03:14:17;11.40;99.90
14248;DHT22;7208;49.826;6.004;2023-10-08T03:16:53;11.40;99.90
14248;DHT22;7208;49.826;6.004;2023-10-08T03:19:21;11.30;99.90
14248;DHT22;7208;49.826;6.004;2023-10-08T03:21:48;11.20;99.90
14248;DHT22;7208;49.826;6.004;2023-10-08T03:24:17;11.30;99.90
14248;DHT22;7208;49.826;6.004;2023-10-08T03:26:59;11.30;99.90
14248;DHT22;7208;49.826;6.004;2023-10-08T03:29:51;11.20;99.90
14248;DHT22;7208;49.826;6.004;2023-10-08T03:32:19;11.00;99.90
14248;DHT22;7208;49.826;6.004;2023-10-08T03:34:52;10.90;99.90
14248;DHT22;7208;49.826;6.004;2023-10-08T03:37:22;10.80;99.90
14248;DHT22;7208;49.826;6.004;2023-10-08T03:39:55;10.80;99.90
14248;DHT22;7208;49.826;6.004;2023-10-08T03:42:46;10.80;99.90
14248;DHT22;7208;49.826;6.004;2023-10-08T03:45:14;10.80;99.90
14248;DHT22;7208;49.826;6.004;2023-10-08T03:47:48;10.80;99.90
14248;DHT22;7208;49.826;6.004;2023-10-08T03:50:28;11.00;99.90
14248;DHT22;7208;49.826;6.004;2023-10-08T03:53:06;11.00;99.90
14248;DHT22;7208;49.826;6.004;2023-10-08T03:55:40;11.10;99.90
14248;DHT22;7208;49.826;6.004;2023-10-08T03:58:07;11.40;99.90
14248;DHT22;7208;49.826;6.004;2023-10-08T04:00:45;11.10;99.90
14248;DHT22;7208;49.826;6.004;2023-10-08T04:03:11;11.00;99.90
14248;DHT22;7208;49.826;6.004;2023-10-08T04:05:40;11.00;99.90
14248;DHT22;7208;49.826;6.004;2023-10-08T04:08:26;11.00;99.90
14248;DHT22;7208;49.826;6.004;2023-10-08T04:11:23;11.10;99.90
14248;DHT22;7208;49.826;6.004;2023-10-08T04:14:04;11.20;99.90
14248;DHT22;7208;49.826;6.004;2023-10-08T04:16:32;11.10;99.90
14248;DHT22;7208;49.826;6.004;2023-10-08T04:19:02;11.20;99.90
14248;DHT22;7208;49.826;6.004;2023-10-08T04:21:29;11.10;99.90
14248;DHT22;7208;49.826;6.004;2023-10-08T04:23:55;11.10;99.90
14248;DHT22;7208;49.826;6.004;2023-10-08T04:26:24;11.00;99.90
14248;DHT22;7208;49.826;6.004;2023-10-08T04:28:53;11.00;99.90
14248;DHT22;7208;49.826;6.004;2023-10-08T04:31:22;10.90;99.90
14248;DHT22;7208;49.826;6.004;2023-10-08T04:33:55;10.90;99.90
14248;DHT22;7208;49.826;6.004;2023-10-08T04:36:26;10.90;99.90
14248;DHT22;7208;49.826;6.004;2023-10-08T04:38:51;10.90;99.90
14248;DHT22;7208;49.826;6.004;2023-10-08T04:41:20;10.80;99.90
14248;DHT22;7208;49.826;6.004;2023-10-08T04:43:53;10.80;99.90
14248;DHT22;7208;49.826;6.004;2023-10-08T04:46:21;10.70;99.90
14248;DHT22;7208;49.826;6.004;2023-10-08T04:49:07;10.70;99.90
14248;DHT22;7208;49.826;6.004;2023-10-08T04:51:43;10.70;99.90
14248;DHT22;7208;49.826;6.004;2023-10-08T04:54:11;10.80;99.90
14248;DHT22;7208;49.826;6.004;2023-10-08T04:56:44;10.90;99.90
14248;DHT22;7208;49.826;6.004;2023-10-08T04:59:10;10.90;99.90
14248;DHT22;7208;49.826;6.004;2023-10-08T05:01:39;10.90;99.90
14248;DHT22;7208;49.826;6.004;2023-10-08T05:04:14;11.00;99.90
14248;DHT22;7208;49.826;6.004;2023-10-08T05:06:49;10.90;99.90
14248;DHT22;7208;49.826;6.004;2023-10-08T05:09:15;10.90;99.90
14248;DHT22;7208;49.826;6.004;2023-10-08T05:11:44;10.80;99.90
14248;DHT22;7208;49.826;6.004;2023-10-08T05:14:24;10.70;99.90
14248;DHT22;7208;49.826;6.004;2023-10-08T05:17:03;10.70;99.90
14248;DHT22;7208;49.826;6.004;2023-10-08T05:19:39;10.60;99.90
14248;DHT22;7208;49.826;6.004;2023-10-08T05:22:21;10.50;99.90
14248;DHT22;7208;49.826;6.004;2023-10-08T05:24:54;10.50;99.90
14248;DHT22;7208;49.826;6.004;2023-10-08T05:27:46;10.50;99.90
14248;DHT22;7208;49.826;6.004;2023-10-08T05:30:15;10.40;99.90
14248;DHT22;7208;49.826;6.004;2023-10-08T05:32:43;10.50;99.90
14248;DHT22;7208;49.826;6.004;2023-10-08T05:35:35;10.40;99.90
14248;DHT22;7208;49.826;6.004;2023-10-08T05:38:11;10.60;99.90
14248;DHT22;7208;49.826;6.004;2023-10-08T05:40:43;10.50;99.90
14248;DHT22;7208;49.826;6.004;2023-10-08T05:43:31;10.50;99.90
14248;DHT22;7208;49.826;6.004;2023-10-08T05:46:06;10.40;99.90
14248;DHT22;7208;49.826;6.004;2023-10-08T05:49:07;10.40;99.90
14248;DHT22;7208;49.826;6.004;2023-10-08T05:51:34;10.30;99.90
14248;DHT22;7208;49.826;6.004;2023-10-08T05:54:24;10.30;99.90
14248;DHT22;7208;49.826;6.004;2023-10-08T05:57:07;10.30;99.90
14248;DHT22;7208;49.826;6.004;2023-10-08T05:59:47;10.30;99.90
14248;DHT22;7208;49.826;6.004;2023-10-08T06:02:24;10.30;99.90
14248;DHT22;7208;49.826;6.004;2023-10-08T06:05:03;10.20;99.90
14248;DHT22;7208;49.826;6.004;2023-10-08T06:07:45;10.30;99.90
14248;DHT22;7208;49.826;6.004;2023-10-08T06:10:30;10.30;99.90
14248;DHT22;7208;49.826;6.004;2023-10-08T06:13:14;10.30;99.90
14248;DHT22;7208;49.826;6.004;2023-10-08T06:16:08;10.30;99.90
14248;DHT22;7208;49.826;6.004;2023-10-08T06:18:34;10.40;99.90
14248;DHT22;7208;49.826;6.004;2023-10-08T06:21:05;10.50;99.90
14248;DHT22;7208;49.826;6.004;2023-10-08T06:23:35;10.60;99.90
14248;DHT22;7208;49.826;6.004;2023-10-08T06:26:02;10.70;99.90
14248;DHT22;7208;49.826;6.004;2023-10-08T06:28:41;10.80;99.90
14248;DHT22;7208;49.826;6.004;2023-10-08T06:31:07;10.80;99.90
14248;DHT22;7208;49.826;6.004;2023-10-08T06:33:44;10.80;99.90
14248;DHT22;7208;49.826;6.004;2023-10-08T06:36:10;10.70;99.90
14248;DHT22;7208;49.826;6.004;2023-10-08T06:38:37;10.70;99.90
14248;DHT22;7208;49.826;6.004;2023-10-08T06:41:06;10.80;99.90
14248;DHT22;7208;49.826;6.004;2023-10-08T06:43:39;10.80;99.90
14248;DHT22;7208;49.826;6.004;2023-10-08T06:46:08;10.80;99.90
14248;DHT22;7208;49.826;6.004;2023-10-08T06:48:34;10.90;99.90
14248;DHT22;7208;49.826;6.004;2023-10-08T06:51:00;11.00;99.90
14248;DHT22;7208;49.826;6.004;2023-10-08T06:53:47;11.00;99.90
14248;DHT22;7208;49.826;6.004;2023-10-08T06:56:14;11.10;99.90
14248;DHT22;7208;49.826;6.004;2023-10-08T06:58:44;11.20;99.90
14248;DHT22;7208;49.826;6.004;2023-10-08T07:01:18;11.20;99.90
14248;DHT22;7208;49.826;6.004;2023-10-08T07:03:49;11.30;99.90
14248;DHT22;7208;49.826;6.004;2023-10-08T07:06:16;11.50;99.90
14248;DHT22;7208;49.826;6.004;2023-10-08T07:08:43;11.70;99.90
14248;DHT22;7208;49.826;6.004;2023-10-08T07:11:13;11.90;99.90
14248;DHT22;7208;49.826;6.004;2023-10-08T07:13:40;12.10;99.90
14248;DHT22;7208;49.826;6.004;2023-10-08T07:16:08;12.20;99.90
14248;DHT22;7208;49.826;6.004;2023-10-08T07:18:39;12.40;99.90
14248;DHT22;7208;49.826;6.004;2023-10-08T07:21:07;12.60;99.90
14248;DHT22;7208;49.826;6.004;2023-10-08T07:23:39;12.80;99.90
14248;DHT22;7208;49.826;6.004;2023-10-08T07:26:25;13.00;99.90
14248;DHT22;7208;49.826;6.004;2023-10-08T07:28:52;13.00;99.90
14248;DHT22;7208;49.826;6.004;2023-10-08T07:31:20;13.10;99.90
14248;DHT22;7208;49.826;6.004;2023-10-08T07:33:54;12.90;99.90
14248;DHT22;7208;49.826;6.004;2023-10-08T07:36:26;12.90;99.90
14248;DHT22;7208;49.826;6.004;2023-10-08T07:38:53;13.10;99.90
14248;DHT22;7208;49.826;6.004;2023-10-08T07:41:19;13.10;99.90
14248;DHT22;7208;49.826;6.004;2023-10-08T07:43:49;13.40;99.90
14248;DHT22;7208;49.826;6.004;2023-10-08T07:46:25;13.70;99.90
14248;DHT22;7208;49.826;6.004;2023-10-08T07:51:16;14.20;99.90
14248;DHT22;7208;49.826;6.004;2023-10-08T07:53:49;14.40;99.90
14248;DHT22;7208;49.826;6.004;2023-10-08T07:56:19;14.60;99.90
14248;DHT22;7208;49.826;6.004;2023-10-08T07:58:45;14.60;99.90
14248;DHT22;7208;49.826;6.004;2023-10-08T08:01:11;14.70;99.90
14248;DHT22;7208;49.826;6.004;2023-10-08T08:03:39;15.00;99.90
14248;DHT22;7208;49.826;6.004;2023-10-08T08:06:09;15.30;99.90
14248;DHT22;7208;49.826;6.004;2023-10-08T08:08:38;15.40;99.90
14248;DHT22;7208;49.826;6.004;2023-10-08T08:11:05;15.70;99.90
14248;DHT22;7208;49.826;6.004;2023-10-08T08:13:35;15.70;99.90
14248;DHT22;7208;49.826;6.004;2023-10-08T08:16:01;15.60;99.90
14248;DHT22;7208;49.826;6.004;2023-10-08T08:18:42;15.50;99.90
14248;DHT22;7208;49.826;6.004;2023-10-08T08:21:12;15.70;99.90
14248;DHT22;7208;49.826;6.004;2023-10-08T08:23:46;15.90;99.90
14248;DHT22;7208;49.826;6.004;2023-10-08T08:26:22;16.00;99.90
14248;DHT22;7208;49.826;6.004;2023-10-08T08:28:55;16.20;99.90
14248;DHT22;7208;49.826;6.004;2023-10-08T08:31:26;16.40;99.90
14248;DHT22;7208;49.826;6.004;2023-10-08T08:33:52;16.40;99.90
14248;DHT22;7208;49.826;6.004;2023-10-08T08:36:23;16.20;99.90
14248;DHT22;7208;49.826;6.004;2023-10-08T08:38:49;16.30;99.90
14248;DHT22;7208;49.826;6.004;2023-10-08T08:41:16;16.40;99.90
14248;DHT22;7208;49.826;6.004;2023-10-08T08:43:48;16.50;99.90
14248;DHT22;7208;49.826;6.004;2023-10-08T08:46:15;16.50;99.90
14248;DHT22;7208;49.826;6.004;2023-10-08T08:48:44;16.70;99.90
14248;DHT22;7208;49.826;6.004;2023-10-08T08:51:10;16.90;99.90
14248;DHT22;7208;49.826;6.004;2023-10-08T08:53:36;17.10;99.90
14248;DHT22;7208;49.826;6.004;2023-10-08T08:56:02;17.10;99.90
14248;DHT22;7208;49.826;6.004;2023-10-08T08:58:33;17.30;99.90
14248;DHT22;7208;49.826;6.004;2023-10-08T09:01:00;17.40;99.90
14248;DHT22;7208;49.826;6.004;2023-10-08T09:03:25;17.30;99.90
14248;DHT22;7208;49.826;6.004;2023-10-08T09:05:58;17.50;99.90
14248;DHT22;7208;49.826;6.004;2023-10-08T09:08:28;17.50;99.90
14248;DHT22;7208;49.826;6.004;2023-10-08T09:10:57;17.60;99.90
14248;DHT22;7208;49.826;6.004;2023-10-08T09:13:27;17.60;99.90
14248;DHT22;7208;49.826;6.004;2023-10-08T09:16:12;17.80;99.90
14248;DHT22;7208;49.826;6.004;2023-10-08T09:18:41;17.80;99.90
14248;DHT22;7208;49.826;6.004;2023-10-08T09:21:10;18.10;99.90
14248;DHT22;7208;49.826;6.004;2023-10-08T09:23:43;18.40;99.90
14248;DHT22;7208;49.826;6.004;2023-10-08T09:26:12;18.80;99.90
14248;DHT22;7208;49.826;6.004;2023-10-08T09:28:40;18.90;99.90
14248;DHT22;7208;49.826;6.004;2023-10-08T09:31:10;18.90;99.90
14248;DHT22;7208;49.826;6.004;2023-10-08T09:33:37;18.70;99.90
14248;DHT22;7208;49.826;6.004;2023-10-08T09:36:03;19.00;99.90
14248;DHT22;7208;49.826;6.004;2023-10-08T09:38:33;19.00;99.90
14248;DHT22;7208;49.826;6.004;2023-10-08T09:40:59;19.20;99.90
14248;DHT22;7208;49.826;6.004;2023-10-08T09:43:29;19.20;99.90
14248;DHT22;7208;49.826;6.004;2023-10-08T09:46:15;19.20;99.90
14248;DHT22;7208;49.826;6.004;2023-10-08T09:48:43;19.20;99.90
14248;DHT22;7208;49.826;6.004;2023-10-08T09:51:13;19.50;99.90
14248;DHT22;7208;49.826;6.004;2023-10-08T09:56:29;19.90;99.90
14248;DHT22;7208;49.826;6.004;2023-10-08T09:58:57;20.10;99.90
14248;DHT22;7208;49.826;6.004;2023-10-08T10:01:25;20.10;99.90
14248;DHT22;7208;49.826;6.004;2023-10-08T10:03:52;20.10;99.90
14248;DHT22;7208;49.826;6.004;2023-10-08T10:06:18;20.20;99.90
14248;DHT22;7208;49.826;6.004;2023-10-08T10:08:45;20.00;99.90
14248;DHT22;7208;49.826;6.004;2023-10-08T10:11:11;19.80;99.90
14248;DHT22;7208;49.826;6.004;2023-10-08T10:13:42;19.90;99.90
14248;DHT22;7208;49.826;6.004;2023-10-08T10:16:11;20.20;99.90
14248;DHT22;7208;49.826;6.004;2023-10-08T10:18:38;20.40;99.90
14248;DHT22;7208;49.826;6.004;2023-10-08T10:23:41;20.40;99.90
14248;DHT22;7208;49.826;6.004;2023-10-08T10:26:29;20.50;99.90
14248;DHT22;7208;49.826;6.004;2023-10-08T10:31:49;21.20;99.90
14248;DHT22;7208;49.826;6.004;2023-10-08T10:36:47;21.50;99.90
14248;DHT22;7208;49.826;6.004;2023-10-08T10:39:20;21.50;99.90
14248;DHT22;7208;49.826;6.004;2023-10-08T10:42:00;21.70;99.90
14248;DHT22;7208;49.826;6.004;2023-10-08T10:44:33;21.50;99.90
14248;DHT22;7208;49.826;6.004;2023-10-08T10:47:02;21.30;99.90
14248;DHT22;7208;49.826;6.004;2023-10-08T10:49:44;21.40;99.90
14248;DHT22;7208;49.826;6.004;2023-10-08T10:52:27;21.30;99.90
14248;DHT22;7208;49.826;6.004;2023-10-08T10:55:18;21.20;99.90
14248;DHT22;7208;49.826;6.004;2023-10-08T10:57:54;21.00;99.90
14248;DHT22;7208;49.826;6.004;2023-10-08T11:00:22;21.00;99.90
14248;DHT22;7208;49.826;6.004;2023-10-08T11:03:02;21.30;99.90
14248;DHT22;7208;49.826;6.004;2023-10-08T11:05:33;21.60;99.90
14248;DHT22;7208;49.826;6.004;2023-10-08T11:08:04;21.70;99.90
14248;DHT22;7208;49.826;6.004;2023-10-08T11:10:37;22.00;99.90
14248;DHT22;7208;49.826;6.004;2023-10-08T11:13:05;22.00;99.90
14248;DHT22;7208;49.826;6.004;2023-10-08T11:15:40;22.20;99.90
14248;DHT22;7208;49.826;6.004;2023-10-08T11:18:23;22.40;99.90
14248;DHT22;7208;49.826;6.004;2023-10-08T11:20:51;22.30;99.90
14248;DHT22;7208;49.826;6.004;2023-10-08T11:23:35;22.60;99.90
14248;DHT22;7208;49.826;6.004;2023-10-08T11:26:05;22.70;99.90
14248;DHT22;7208;49.826;6.004;2023-10-08T11:28:31;22.70;99.90
14248;DHT22;7208;49.826;6.004;2023-10-08T11:31:00;22.60;99.90
14248;DHT22;7208;49.826;6.004;2023-10-08T11:33:34;22.40;99.90
14248;DHT22;7208;49.826;6.004;2023-10-08T11:36:03;22.50;99.90
14248;DHT22;7208;49.826;6.004;2023-10-08T11:38:39;22.80;99.90
14248;DHT22;7208;49.826;6.004;2023-10-08T11:41:12;23.30;99.90
14248;DHT22;7208;49.826;6.004;2023-10-08T11:43:55;23.20;99.90
14248;DHT22;7208;49.826;6.004;2023-10-08T11:46:31;23.10;99.90
14248;DHT22;7208;49.826;6.004;2023-10-08T11:49:09;23.00;99.90
14248;DHT22;7208;49.826;6.004;2023-10-08T11:51:44;23.10;99.90
14248;DHT22;7208;49.826;6.004;2023-10-08T11:54:09;23.00;99.90
14248;DHT22;7208;49.826;6.004;2023-10-08T11:56:38;22.90;99.90
14248;DHT22;7208;49.826;6.004;2023-10-08T11:59:07;23.30;99.90
14248;DHT22;7208;49.826;6.004;2023-10-08T12:01:37;23.00;99.90
14248;DHT22;7208;49.826;6.004;2023-10-08T12:04:08;22.70;99.90
14248;DHT22;7208;49.826;6.004;2023-10-08T12:06:39;22.40;99.90
14248;DHT22;7208;49.826;6.004;2023-10-08T12:09:09;22.30;99.90
14248;DHT22;7208;49.826;6.004;2023-10-08T12:11:38;22.50;99.90
14248;DHT22;7208;49.826;6.004;2023-10-08T12:14:05;22.50;99.90
14248;DHT22;7208;49.826;6.004;2023-10-08T12:16:31;22.70;99.90
14248;DHT22;7208;49.826;6.004;2023-10-08T12:19:01;22.90;99.90
14248;DHT22;7208;49.826;6.004;2023-10-08T12:21:28;23.30;99.90
14248;DHT22;7208;49.826;6.004;2023-10-08T12:23:58;23.40;99.90
14248;DHT22;7208;49.826;6.004;2023-10-08T12:26:24;23.70;99.90
14248;DHT22;7208;49.826;6.004;2023-10-08T12:28:50;23.80;99.90
14248;DHT22;7208;49.826;6.004;2023-10-08T12:31:19;23.40;99.90
14248;DHT22;7208;49.826;6.004;2023-10-08T12:33:52;23.90;99.90
14248;DHT22;7208;49.826;6.004;2023-10-08T12:36:20;24.00;99.90
14248;DHT22;7208;49.826;6.004;2023-10-08T12:38:49;24.30;99.90
14248;DHT22;7208;49.826;6.004;2023-10-08T12:41:15;24.20;99.90
14248;DHT22;7208;49.826;6.004;2023-10-08T12:43:44;24.50;99.90
14248;DHT22;7208;49.826;6.004;2023-10-08T12:46:12;25.00;99.90
14248;DHT22;7208;49.826;6.004;2023-10-08T12:48:45;25.30;99.90
14248;DHT22;7208;49.826;6.004;2023-10-08T12:51:14;25.30;99.90
14248;DHT22;7208;49.826;6.004;2023-10-08T12:53:39;25.10;99.90
14248;DHT22;7208;49.826;6.004;2023-10-08T12:56:08;25.00;99.90
14248;DHT22;7208;49.826;6.004;2023-10-08T12:58:41;25.20;99.90
14248;DHT22;7208;49.826;6.004;2023-10-08T13:01:13;25.20;99.90
14248;DHT22;7208;49.826;6.004;2023-10-08T13:03:40;25.40;99.90
14248;DHT22;7208;49.826;6.004;2023-10-08T13:06:14;25.60;99.90
14248;DHT22;7208;49.826;6.004;2023-10-08T13:08:54;25.40;99.90
14248;DHT22;7208;49.826;6.004;2023-10-08T13:11:24;25.20;99.90
14248;DHT22;7208;49.826;6.004;2023-10-08T13:13:56;25.10;99.90
14248;DHT22;7208;49.826;6.004;2023-10-08T13:16:26;25.30;99.90
14248;DHT22;7208;49.826;6.004;2023-10-08T13:18:56;25.10;99.90
14248;DHT22;7208;49.826;6.004;2023-10-08T13:21:27;25.10;99.90
14248;DHT22;7208;49.826;6.004;2023-10-08T13:23:54;25.10;99.90
14248;DHT22;7208;49.826;6.004;2023-10-08T13:26:25;25.50;99.90
14248;DHT22;7208;49.826;6.004;2023-10-08T13:28:56;25.20;99.90
14248;DHT22;7208;49.826;6.004;2023-10-08T13:31:23;25.00;99.90
14248;DHT22;7208;49.826;6.004;2023-10-08T13:33:50;25.00;99.90
14248;DHT22;7208;49.826;6.004;2023-10-08T13:36:18;25.10;99.90
14248;DHT22;7208;49.826;6.004;2023-10-08T13:38:44;25.20;99.90
14248;DHT22;7208;49.826;6.004;2023-10-08T13:41:13;25.30;99.90
14248;DHT22;7208;49.826;6.004;2023-10-08T13:46:14;25.10;99.90
14248;DHT22;7208;49.826;6.004;2023-10-08T13:48:44;24.80;99.90
14248;DHT22;7208;49.826;6.004;2023-10-08T13:51:21;24.70;99.90
14248;DHT22;7208;49.826;6.004;2023-10-08T13:53:58;24.60;99.90
14248;DHT22;7208;49.826;6.004;2023-10-08T13:56:28;24.40;99.90
14248;DHT22;7208;49.826;6.004;2023-10-08T13:58:57;24.90;99.90
14248;DHT22;7208;49.826;6.004;2023-10-08T14:01:45;24.60;99.90
14248;DHT22;7208;49.826;6.004;2023-10-08T14:04:17;24.70;99.90
14248;DHT22;7208;49.826;6.004;2023-10-08T14:06:45;24.70;99.90
14248;DHT22;7208;49.826;6.004;2023-10-08T14:09:13;24.90;99.90
14248;DHT22;7208;49.826;6.004;2023-10-08T14:11:47;24.60;99.90
14248;DHT22;7208;49.826;6.004;2023-10-08T14:14:13;24.50;99.90
14248;DHT22;7208;49.826;6.004;2023-10-08T14:16:42;24.30;99.90
14248;DHT22;7208;49.826;6.004;2023-10-08T14:19:11;24.30;99.90
14248;DHT22;7208;49.826;6.004;2023-10-08T14:21:40;24.20;99.90
14248;DHT22;7208;49.826;6.004;2023-10-08T14:24:19;24.40;99.90
14248;DHT22;7208;49.826;6.004;2023-10-08T14:26:46;24.40;99.90
14248;DHT22;7208;49.826;6.004;2023-10-08T14:29:18;24.60;99.90
14248;DHT22;7208;49.826;6.004;2023-10-08T14:31:44;24.30;99.90
14248;DHT22;7208;49.826;6.004;2023-10-08T14:34:15;24.20;99.90
14248;DHT22;7208;49.826;6.004;2023-10-08T14:36:47;24.30;99.90
14248;DHT22;7208;49.826;6.004;2023-10-08T14:39:34;24.20;99.90
14248;DHT22;7208;49.826;6.004;2023-10-08T14:42:19;24.20;99.90
14248;DHT22;7208;49.826;6.004;2023-10-08T14:45:04;24.30;99.90
14248;DHT22;7208;49.826;6.004;2023-10-08T14:47:37;24.20;99.90
14248;DHT22;7208;49.826;6.004;2023-10-08T14:50:03;24.40;99.90
14248;DHT22;7208;49.826;6.004;2023-10-08T14:52:31;24.30;99.90
14248;DHT22;7208;49.826;6.004;2023-10-08T14:54:57;24.00;99.90
14248;DHT22;7208;49.826;6.004;2023-10-08T14:57:22;23.90;99.90
14248;DHT22;7208;49.826;6.004;2023-10-08T14:59:51;23.60;99.90
14248;DHT22;7208;49.826;6.004;2023-10-08T15:02:17;23.30;99.90
14248;DHT22;7208;49.826;6.004;2023-10-08T15:04:42;23.10;99.90
14248;DHT22;7208;49.826;6.004;2023-10-08T15:07:10;23.10;99.90
14248;DHT22;7208;49.826;6.004;2023-10-08T15:09:43;23.10;99.90
14248;DHT22;7208;49.826;6.004;2023-10-08T15:12:10;22.80;99.90
14248;DHT22;7208;49.826;6.004;2023-10-08T15:14:36;22.90;99.90
14248;DHT22;7208;49.826;6.004;2023-10-08T15:17:03;22.90;99.90
14248;DHT22;7208;49.826;6.004;2023-10-08T15:19:30;23.00;99.90
14248;DHT22;7208;49.826;6.004;2023-10-08T15:21:57;23.10;99.90
14248;DHT22;7208;49.826;6.004;2023-10-08T15:24:24;23.10;99.90
14248;DHT22;7208;49.826;6.004;2023-10-08T15:26:50;23.30;99.90
14248;DHT22;7208;49.826;6.004;2023-10-08T15:29:22;23.30;99.90
14248;DHT22;7208;49.826;6.004;2023-10-08T15:31:54;23.40;99.90
14248;DHT22;7208;49.826;6.004;2023-10-08T15:34:23;23.60;99.90
14248;DHT22;7208;49.826;6.004;2023-10-08T15:36:54;23.80;99.90
14248;DHT22;7208;49.826;6.004;2023-10-08T15:39:20;23.90;99.90
14248;DHT22;7208;49.826;6.004;2023-10-08T15:41:49;23.60;99.90
14248;DHT22;7208;49.826;6.004;2023-10-08T15:44:19;23.60;99.90
14248;DHT22;7208;49.826;6.004;2023-10-08T15:46:48;23.40;99.90
14248;DHT22;7208;49.826;6.004;2023-10-08T15:49:15;23.40;99.90
14248;DHT22;7208;49.826;6.004;2023-10-08T15:51:41;23.30;99.90
14248;DHT22;7208;49.826;6.004;2023-10-08T15:54:07;23.10;99.90
14248;DHT22;7208;49.826;6.004;2023-10-08T15:56:33;23.00;99.90
14248;DHT22;7208;49.826;6.004;2023-10-08T15:59:00;22.90;99.90
14248;DHT22;7208;49.826;6.004;2023-10-08T16:01:26;22.60;99.90
14248;DHT22;7208;49.826;6.004;2023-10-08T16:03:52;22.60;99.90
14248;DHT22;7208;49.826;6.004;2023-10-08T16:06:18;22.50;99.90
14248;DHT22;7208;49.826;6.004;2023-10-08T16:08:47;22.30;99.90
14248;DHT22;7208;49.826;6.004;2023-10-08T16:11:14;21.90;99.90
14248;DHT22;7208;49.826;6.004;2023-10-08T16:13:39;21.50;99.90
14248;DHT22;7208;49.826;6.004;2023-10-08T16:16:11;21.10;99.90
14248;DHT22;7208;49.826;6.004;2023-10-08T16:18:38;20.80;99.90
14248;DHT22;7208;49.826;6.004;2023-10-08T16:21:04;20.60;99.90
14248;DHT22;7208;49.826;6.004;2023-10-08T16:23:35;20.30;99.90
14248;DHT22;7208;49.826;6.004;2023-10-08T16:26:02;20.20;99.90